createdAt,value
2019-02-27T00:00:34.382Z,61.70
2019-02-27T00:03:05.426Z,53.35
2019-02-27T00:05:33.901Z,51.53
2019-02-27T00:08:02.436Z,55.25
2019-02-27T00:10:30.935Z,60.92
2019-02-27T00:12:59.489Z,50.78
2019-02-27T00:15:27.964Z,58.40
2019-02-27T00:17:56.419Z,58.30
2019-02-27T00:20:24.919Z,56.10
2019-02-27T00:22:53.529Z,58.55
2019-02-27T00:25:22.009Z,50.17
2019-02-27T00:27:54.899Z,53.75
2019-02-27T00:30:23.467Z,53.98
2019-02-27T00:32:51.985Z,54.93
2019-02-27T00:35:20.559Z,61.10
2019-02-27T00:37:52.703Z,56.08
2019-02-27T00:40:21.315Z,53.10
2019-02-27T00:42:54.109Z,60.17
2019-02-27T00:45:23.029Z,61.88
2019-02-27T00:47:53.237Z,54.00
2019-02-27T00:50:21.781Z,57.33
2019-02-27T00:52:51.100Z,53.90
2019-02-27T00:55:20.201Z,55.15
2019-02-27T00:57:48.663Z,57.83
2019-02-27T01:00:18.851Z,57.40
2019-02-27T01:02:47.476Z,52.27
2019-02-27T01:05:16.125Z,52.43
2019-02-27T01:07:45.040Z,57.80
2019-02-27T01:10:16.894Z,48.45
2019-02-27T01:12:47.318Z,52.05
2019-02-27T01:15:15.816Z,54.40
2019-02-27T01:17:44.480Z,52.95
2019-02-27T01:20:14.495Z,53.25
2019-02-27T01:22:43.118Z,53.52
2019-02-27T01:25:11.700Z,56.42
2019-02-27T01:27:40.156Z,52.73
2019-02-27T01:30:12.031Z,53.90
2019-02-27T01:32:40.498Z,57.62
2019-02-27T01:35:10.710Z,56.55
2019-02-27T01:37:39.184Z,60.00
2019-02-27T01:40:10.913Z,57.85
2019-02-27T01:42:39.440Z,54.95
2019-02-27T01:45:10.826Z,56.33
2019-02-27T01:47:39.311Z,51.73
2019-02-27T01:50:25.494Z,53.17
2019-02-27T01:52:54.533Z,55.83
2019-02-27T01:55:24.733Z,55.17
2019-02-27T01:57:53.231Z,60.80
2019-02-27T02:00:23.306Z,57.23
2019-02-27T02:02:53.458Z,52.43
2019-02-27T02:05:26.356Z,57.08
2019-02-27T02:07:52.428Z,58.42
2019-02-27T02:10:21.049Z,55.40
2019-02-27T02:12:57.558Z,65.42
2019-02-27T02:16:01.878Z,61.02
2019-02-27T02:18:48.850Z,51.60
2019-02-27T02:21:26.040Z,60.30
2019-02-27T02:24:09.300Z,60.35
2019-02-27T02:26:58.714Z,65.45
2019-02-27T02:30:15.161Z,63.00
2019-02-27T02:33:15.518Z,61.48
2019-02-27T02:36:07.833Z,59.88
2019-02-27T02:38:48.285Z,64.72
2019-02-27T02:41:39.162Z,61.85
2019-02-27T02:44:40.586Z,57.67
2019-02-27T02:47:32.371Z,69.12
2019-02-27T02:50:36.619Z,64.37
2019-02-27T02:53:17.185Z,54.67
2019-02-27T02:55:51.275Z,63.98
2019-02-27T02:58:22.929Z,64.27
2019-02-27T03:00:54.460Z,60.83
2019-02-27T03:03:35.826Z,61.55
2019-02-27T03:06:38.469Z,55.55
2019-02-27T03:09:18.715Z,62.08
2019-02-27T03:11:54.764Z,63.90
2019-02-27T03:14:38.129Z,58.52
2019-02-27T03:17:40.416Z,52.95
2019-02-27T03:20:38.770Z,56.53
2019-02-27T03:23:24.910Z,52.08
2019-02-27T03:26:16.790Z,55.15
2019-02-27T03:29:16.949Z,57.55
2019-02-27T03:32:07.487Z,58.30
2019-02-27T03:34:56.943Z,61.80
2019-02-27T03:37:58.273Z,59.63
2019-02-27T03:40:59.630Z,66.28
2019-02-27T03:43:59.131Z,57.98
2019-02-27T03:46:41.821Z,55.25
2019-02-27T03:49:21.104Z,51.50
2019-02-27T03:51:59.620Z,60.12
2019-02-27T03:54:31.405Z,54.38
2019-02-27T03:57:23.446Z,55.33
2019-02-27T04:00:29.039Z,63.28
2019-02-27T04:06:02.470Z,55.23
2019-02-27T04:09:10.023Z,59.00
2019-02-27T04:11:41.427Z,62.27
2019-02-27T04:14:47.489Z,62.48
2019-02-27T04:17:16.048Z,56.33
2019-02-27T04:19:46.127Z,64.58
2019-02-27T04:22:14.663Z,50.25
2019-02-27T04:24:44.673Z,54.90
2019-02-27T04:27:13.151Z,55.70
2019-02-27T04:29:41.887Z,58.35
2019-02-27T04:32:12.402Z,54.13
2019-02-27T04:34:41.047Z,54.77
2019-02-27T04:37:12.166Z,54.00
2019-02-27T04:39:40.616Z,59.75
2019-02-27T04:42:10.633Z,56.08
2019-02-27T04:44:39.645Z,50.85
2019-02-27T04:47:08.123Z,45.33
2019-02-27T04:49:37.811Z,55.15
2019-02-27T04:52:06.896Z,60.20
2019-02-27T04:54:41.106Z,43.40
2019-02-27T04:57:05.570Z,57.23
2019-02-27T04:59:34.064Z,58.45
2019-02-27T05:02:02.534Z,59.50
2019-02-27T05:04:34.864Z,56.75
2019-02-27T05:07:01.210Z,52.75
2019-02-27T05:09:31.376Z,51.40
2019-02-27T05:11:59.953Z,49.45
2019-02-27T05:14:28.449Z,54.88
2019-02-27T05:16:59.600Z,58.13
2019-02-27T05:19:27.787Z,63.50
2019-02-27T05:21:58.352Z,48.28
2019-02-27T05:24:26.565Z,55.45
2019-02-27T05:26:55.024Z,51.73
2019-02-27T05:29:23.514Z,56.65
2019-02-27T05:31:53.254Z,54.25
2019-02-27T05:34:22.580Z,41.68
2019-02-27T05:36:53.452Z,64.15
2019-02-27T05:39:21.968Z,50.73
2019-02-27T05:41:51.869Z,56.88
2019-02-27T05:44:22.142Z,60.25
2019-02-27T05:46:50.525Z,49.65
2019-02-27T05:49:18.996Z,54.03
2019-02-27T05:51:47.496Z,46.85
2019-02-27T05:54:16.030Z,51.85
2019-02-27T05:56:47.079Z,51.08
2019-02-27T05:59:14.713Z,49.58
2019-02-27T06:01:43.192Z,45.65
2019-02-27T06:04:11.745Z,54.63
2019-02-27T06:06:46.243Z,53.13
2019-02-27T06:11:44.252Z,50.25
2019-02-27T06:14:12.763Z,56.42
2019-02-27T06:16:41.253Z,51.80
2019-02-27T06:19:09.816Z,53.40
2019-02-27T06:21:38.920Z,50.98
2019-02-27T06:24:11.692Z,54.75
2019-02-27T06:26:37.637Z,54.20
2019-02-27T06:29:06.175Z,58.35
2019-02-27T06:31:38.821Z,56.02
2019-02-27T06:34:05.019Z,55.65
2019-02-27T06:36:33.492Z,54.40
2019-02-27T06:39:01.949Z,52.65
2019-02-27T06:41:30.427Z,52.73
2019-02-27T06:44:01.380Z,60.55
2019-02-27T06:46:29.085Z,58.52
2019-02-27T06:48:57.551Z,45.67
2019-02-27T06:51:26.016Z,48.63
2019-02-27T06:53:54.495Z,52.40
2019-02-27T06:56:22.961Z,48.92
2019-02-27T06:58:51.492Z,44.15
2019-02-27T07:01:19.945Z,50.80
2019-02-27T07:03:48.513Z,44.53
2019-02-27T07:06:21.335Z,49.45
2019-02-27T07:08:47.469Z,52.67
2019-02-27T07:11:18.515Z,50.12
2019-02-27T07:13:47.011Z,47.83
2019-02-27T07:16:15.485Z,47.00
2019-02-27T07:18:44.053Z,50.33
2019-02-27T07:21:12.590Z,50.90
2019-02-27T07:23:41.175Z,55.43
2019-02-27T07:26:09.745Z,57.78
2019-02-27T07:28:38.208Z,46.73
2019-02-27T07:31:06.779Z,47.93
2019-02-27T07:33:35.266Z,50.92
2019-02-27T07:36:04.245Z,57.98
2019-02-27T07:38:32.790Z,60.65
2019-02-27T07:41:01.246Z,57.50
2019-02-27T07:43:29.733Z,56.28
2019-02-27T07:45:58.364Z,53.52
2019-02-27T07:48:26.830Z,52.00
2019-02-27T07:50:55.341Z,51.23
2019-02-27T07:53:25.604Z,50.75
2019-02-27T07:55:54.257Z,51.45
2019-02-27T07:58:22.732Z,50.28
2019-02-27T08:00:51.218Z,48.58
2019-02-27T08:03:19.740Z,50.63
2019-02-27T08:05:48.223Z,46.37
2019-02-27T08:08:16.699Z,49.25
2019-02-27T08:10:45.333Z,46.58
2019-02-27T08:13:13.836Z,46.80
2019-02-27T08:15:42.366Z,47.43
2019-02-27T08:18:10.978Z,46.70
2019-02-27T08:20:39.488Z,48.85
2019-02-27T08:23:08.027Z,44.00
2019-02-27T08:25:36.598Z,44.48
2019-02-27T08:28:05.133Z,45.30
2019-02-27T08:30:33.884Z,44.50
2019-02-27T08:33:02.351Z,44.75
2019-02-27T08:35:30.888Z,44.67
2019-02-27T08:38:02.505Z,44.77
2019-02-27T08:40:29.558Z,42.45
2019-02-27T08:42:58.118Z,42.88
2019-02-27T08:45:27.695Z,43.13
2019-02-27T08:47:56.405Z,41.53
2019-02-27T08:50:25.334Z,44.35
2019-02-27T08:52:53.897Z,45.45
2019-02-27T08:55:23.071Z,43.55
2019-02-27T08:57:55.605Z,42.30
2019-02-27T09:00:23.952Z,42.78
2019-02-27T09:02:52.682Z,41.08
2019-02-27T09:05:21.310Z,45.45
2019-02-27T09:07:49.941Z,40.88
2019-02-27T09:10:19.850Z,44.33
2019-02-27T09:12:49.510Z,42.85
2019-02-27T09:15:18.676Z,40.45
2019-02-27T09:17:47.228Z,40.85
2019-02-27T09:20:19.698Z,40.20
2019-02-27T09:22:48.283Z,42.08
2019-02-27T09:25:17.040Z,38.55
2019-02-27T09:27:45.636Z,39.35
2019-02-27T09:30:23.004Z,40.08
2019-02-27T09:32:51.646Z,40.03
2019-02-27T09:35:20.187Z,42.67
2019-02-27T09:37:51.197Z,40.75
2019-02-27T09:40:29.856Z,40.98
2019-02-27T09:42:58.539Z,41.85
2019-02-27T09:45:35.198Z,40.60
2019-02-27T09:48:04.341Z,43.00
2019-02-27T09:50:35.236Z,40.90
2019-02-27T09:53:04.445Z,42.98
2019-02-27T09:55:33.160Z,41.80
2019-02-27T09:58:01.900Z,39.23
2019-02-27T10:00:39.355Z,38.53
2019-02-27T10:03:07.967Z,40.95
2019-02-27T10:05:37.513Z,37.88
2019-02-27T10:08:07.723Z,38.25
2019-02-27T10:10:36.246Z,41.08
2019-02-27T10:13:04.721Z,39.85
2019-02-27T10:15:34.462Z,38.88
2019-02-27T10:18:03.129Z,38.58
2019-02-27T10:20:36.839Z,39.25
2019-02-27T10:23:02.132Z,38.67
2019-02-27T10:25:30.749Z,37.28
2019-02-27T10:28:03.414Z,36.98
2019-02-27T10:30:29.504Z,41.15
2019-02-27T10:32:57.991Z,38.10
2019-02-27T10:35:29.384Z,34.70
2019-02-27T10:37:56.924Z,38.55
2019-02-27T10:40:28.394Z,35.90
2019-02-27T10:42:57.144Z,38.60
2019-02-27T10:45:25.749Z,38.88
2019-02-27T10:47:54.375Z,39.73
2019-02-27T10:50:22.913Z,45.67
2019-02-27T10:52:51.541Z,43.52
2019-02-27T10:55:21.207Z,43.80
2019-02-27T10:57:49.981Z,38.23
2019-02-27T11:00:33.386Z,37.67
2019-02-27T11:03:02.540Z,39.45
2019-02-27T11:05:35.617Z,37.73
2019-02-27T11:11:36.411Z,38.40
2019-02-27T11:14:04.919Z,36.70
2019-02-27T11:16:33.412Z,39.48
2019-02-27T11:19:01.937Z,37.25
2019-02-27T11:21:30.441Z,38.50
2019-02-27T11:23:58.937Z,35.17
2019-02-27T11:26:27.488Z,36.00
2019-02-27T11:28:57.736Z,38.28
2019-02-27T11:31:26.370Z,37.80
2019-02-27T11:33:54.950Z,38.80
2019-02-27T11:36:23.427Z,39.53
2019-02-27T11:38:52.070Z,39.33
2019-02-27T11:41:20.688Z,41.55
2019-02-27T11:43:49.269Z,38.67
2019-02-27T11:46:17.769Z,38.65
2019-02-27T11:48:46.372Z,38.55
2019-02-27T11:51:17.512Z,39.03
2019-02-27T11:53:45.187Z,38.17
2019-02-27T11:56:13.696Z,35.88
2019-02-27T11:58:42.171Z,37.73
2019-02-27T12:01:12.214Z,38.17
2019-02-27T12:03:45.667Z,37.73
2019-02-27T12:06:11.170Z,36.95
2019-02-27T12:08:39.686Z,34.60
2019-02-27T12:11:09.750Z,36.05
2019-02-27T12:13:38.456Z,38.95
2019-02-27T12:16:07.681Z,36.45
2019-02-27T12:18:37.728Z,37.53
2019-02-27T12:21:06.302Z,39.67
2019-02-27T12:23:34.794Z,36.48
2019-02-27T12:26:03.751Z,36.15
2019-02-27T12:28:32.241Z,37.15
2019-02-27T12:31:00.874Z,36.83
2019-02-27T12:33:29.961Z,33.15
2019-02-27T12:35:58.591Z,38.15
2019-02-27T12:38:27.138Z,35.35
2019-02-27T12:40:58.291Z,33.78
2019-02-27T12:43:25.982Z,36.58
2019-02-27T12:45:54.522Z,34.85
2019-02-27T12:48:23.199Z,33.85
2019-02-27T12:50:51.820Z,33.18
2019-02-27T12:53:21.579Z,33.63
2019-02-27T12:55:50.436Z,34.48
2019-02-27T12:58:18.978Z,31.25
2019-02-27T13:00:47.547Z,31.37
2019-02-27T13:03:16.015Z,29.70
2019-02-27T13:05:46.116Z,29.05
2019-02-27T13:08:16.405Z,30.57
2019-02-27T13:10:44.888Z,25.52
2019-02-27T13:13:13.364Z,25.75
2019-02-27T13:15:41.995Z,22.17
2019-02-27T13:18:10.456Z,21.87
2019-02-27T13:20:39.987Z,21.75
2019-02-27T13:23:08.533Z,21.05
2019-02-27T13:25:37.101Z,21.07
2019-02-27T13:28:05.765Z,24.60
2019-02-27T13:30:34.326Z,24.43
2019-02-27T13:33:04.447Z,21.85
2019-02-27T13:35:33.099Z,24.90
2019-02-27T13:38:01.593Z,26.07
2019-02-27T13:40:34.959Z,23.27
2019-02-27T13:43:01.510Z,27.52
2019-02-27T13:45:31.496Z,24.18
2019-02-27T13:48:04.918Z,23.87
2019-02-27T13:50:30.443Z,24.30
2019-02-27T13:52:58.912Z,22.87
2019-02-27T13:55:27.503Z,23.47
2019-02-27T13:57:58.913Z,23.52
2019-02-27T14:00:34.761Z,25.20
2019-02-27T14:03:03.408Z,23.73
2019-02-27T14:05:35.130Z,22.32
2019-02-27T14:08:02.762Z,26.35
2019-02-27T14:10:32.572Z,25.35
2019-02-27T14:13:01.204Z,24.63
2019-02-27T14:15:31.577Z,24.10
2019-02-27T14:18:00.217Z,24.65
2019-02-27T14:20:29.192Z,23.05
2019-02-27T14:22:58.014Z,24.45
2019-02-27T14:25:33.158Z,26.85
2019-02-27T14:28:01.948Z,23.62
2019-02-27T14:30:39.285Z,23.67
2019-02-27T14:33:07.776Z,32.90
2019-02-27T14:35:36.590Z,22.50
2019-02-27T14:38:05.319Z,22.27
2019-02-27T14:40:39.544Z,21.93
2019-02-27T14:43:06.728Z,23.55
2019-02-27T14:45:39.714Z,20.80
2019-02-27T14:48:05.806Z,22.37
2019-02-27T14:50:34.777Z,22.25
2019-02-27T14:53:03.442Z,23.52
2019-02-27T14:55:32.115Z,22.32
2019-02-27T14:58:00.631Z,20.77
2019-02-27T15:00:33.798Z,21.35
2019-02-27T15:03:03.779Z,20.32
2019-02-27T15:05:32.384Z,21.45
2019-02-27T15:08:00.919Z,21.35
2019-02-27T15:10:29.478Z,21.48
2019-02-27T15:12:58.055Z,20.32
2019-02-27T15:15:31.631Z,22.98
2019-02-27T15:18:00.794Z,22.07
2019-02-27T15:20:31.579Z,22.48
2019-02-27T15:23:06.978Z,21.50
2019-02-27T15:25:35.517Z,20.70
2019-02-27T15:28:04.430Z,20.70
2019-02-27T15:30:34.022Z,21.00
2019-02-27T15:33:04.959Z,24.80
2019-02-27T15:35:35.718Z,22.17
2019-02-27T15:38:04.461Z,21.85
2019-02-27T15:40:33.059Z,22.07
2019-02-27T15:43:10.654Z,24.67
2019-02-27T15:45:31.901Z,20.75
2019-02-27T15:48:06.640Z,22.22
2019-02-27T15:50:35.099Z,21.05
2019-02-27T15:53:03.683Z,27.35
2019-02-27T15:55:34.386Z,22.20
2019-02-27T15:58:02.603Z,23.52
2019-02-27T16:00:31.297Z,23.15
2019-02-27T16:03:01.615Z,23.57
2019-02-27T16:05:31.413Z,24.07
2019-02-27T16:08:00.224Z,24.43
2019-02-27T16:10:29.351Z,25.97
2019-02-27T16:13:01.380Z,24.50
2019-02-27T16:15:30.294Z,21.93
2019-02-27T16:17:58.821Z,21.75
2019-02-27T16:20:28.437Z,25.08
2019-02-27T16:22:57.017Z,22.07
2019-02-27T16:25:26.846Z,21.05
2019-02-27T16:27:57.918Z,21.25
2019-02-27T16:30:34.960Z,22.82
2019-02-27T16:33:03.650Z,22.15
2019-02-27T16:35:32.196Z,21.80
2019-02-27T16:38:00.775Z,23.12
2019-02-27T16:40:36.826Z,21.05
2019-02-27T16:43:03.853Z,23.20
2019-02-27T16:45:36.762Z,21.20
2019-02-27T16:48:34.177Z,21.68
2019-02-27T16:51:01.174Z,24.02
2019-02-27T16:53:29.655Z,21.85
2019-02-27T16:55:58.329Z,24.63
2019-02-27T16:58:32.637Z,21.37
2019-02-27T17:01:00.496Z,20.20
2019-02-27T17:03:30.326Z,24.15
2019-02-27T17:05:59.239Z,21.57
2019-02-27T17:08:28.379Z,22.37
2019-02-27T17:10:57.086Z,20.75
2019-02-27T17:13:25.760Z,22.13
2019-02-27T17:15:59.630Z,23.47
2019-02-27T17:18:29.163Z,21.93
2019-02-27T17:20:57.860Z,21.17
2019-02-27T17:23:28.955Z,20.57
2019-02-27T17:26:03.257Z,24.77
2019-02-27T17:28:32.835Z,23.98
2019-02-27T17:31:01.931Z,25.15
2019-02-27T17:33:31.568Z,24.23
2019-02-27T17:36:00.221Z,23.62
2019-02-27T17:38:49.833Z,23.20
2019-02-27T17:41:20.261Z,24.27
2019-02-27T17:43:51.566Z,21.82
2019-02-27T17:46:20.775Z,23.27
2019-02-27T17:48:49.379Z,25.02
2019-02-27T17:51:17.894Z,24.70
2019-02-27T17:53:46.395Z,28.52
2019-02-27T17:56:15.639Z,25.08
2019-02-27T17:58:47.510Z,24.20
2019-02-27T18:01:17.701Z,25.05
2019-02-27T18:03:46.255Z,26.17
2019-02-27T18:06:14.741Z,22.50
2019-02-27T18:08:43.232Z,24.02
2019-02-27T18:11:15.588Z,22.48
2019-02-27T18:13:44.813Z,25.23
2019-02-27T18:16:13.751Z,22.98
2019-02-27T18:18:43.968Z,23.85
2019-02-27T18:21:15.339Z,31.20
2019-02-27T18:23:43.738Z,27.45
2019-02-27T18:26:15.808Z,24.25
2019-02-27T18:28:44.877Z,26.75
2019-02-27T18:31:13.439Z,23.38
2019-02-27T18:33:41.954Z,23.95
2019-02-27T18:36:10.603Z,23.47
2019-02-27T18:38:39.115Z,23.18
2019-02-27T18:41:07.694Z,23.87
2019-02-27T18:43:36.168Z,25.20
2019-02-27T18:46:04.662Z,25.95
2019-02-27T18:48:33.147Z,24.87
2019-02-27T18:51:02.317Z,24.70
2019-02-27T18:53:32.186Z,28.65
2019-02-27T18:56:02.769Z,30.02
2019-02-27T18:58:32.922Z,25.35
2019-02-27T19:01:01.485Z,28.25
2019-02-27T19:03:30.024Z,25.77
2019-02-27T19:05:58.567Z,25.17
2019-02-27T19:08:28.730Z,26.95
2019-02-27T19:11:00.411Z,27.45
2019-02-27T19:13:31.700Z,24.90
2019-02-27T19:16:00.702Z,25.52
2019-02-27T19:18:29.662Z,25.23
2019-02-27T19:20:59.293Z,23.98
2019-02-27T19:23:28.413Z,27.00
2019-02-27T19:25:56.982Z,25.70
2019-02-27T19:28:25.730Z,28.00
2019-02-27T19:30:54.348Z,25.23
2019-02-27T19:33:22.904Z,25.57
2019-02-27T19:35:55.839Z,26.60
2019-02-27T19:38:22.184Z,24.45
2019-02-27T19:40:50.857Z,25.27
2019-02-27T19:43:21.143Z,29.23
2019-02-27T19:45:49.721Z,25.80
2019-02-27T19:48:18.332Z,24.85
2019-02-27T19:50:46.948Z,26.15
2019-02-27T19:53:43.688Z,24.77
2019-02-27T19:56:12.630Z,31.48
2019-02-27T19:58:41.179Z,31.20
2019-02-27T20:01:09.912Z,29.23
2019-02-27T20:03:38.596Z,27.13
2019-02-27T20:06:07.229Z,30.35
2019-02-27T20:08:37.107Z,30.90
2019-02-27T20:11:06.661Z,31.68
2019-02-27T20:13:35.521Z,30.48
2019-02-27T20:16:04.170Z,29.32
2019-02-27T20:18:32.816Z,26.27
2019-02-27T20:21:01.365Z,30.97
2019-02-27T20:23:29.871Z,31.40
2019-02-27T20:25:58.373Z,32.45
2019-02-27T20:28:29.012Z,28.25
2019-02-27T20:30:57.231Z,31.30
2019-02-27T20:33:25.833Z,32.80
2019-02-27T20:35:55.629Z,31.85
2019-02-27T20:38:27.766Z,31.52
2019-02-27T20:40:56.183Z,31.70
2019-02-27T20:43:28.998Z,34.08
2019-02-27T20:45:54.945Z,34.33
2019-02-27T20:48:23.608Z,30.90
2019-02-27T20:50:55.474Z,31.02
2019-02-27T20:53:24.128Z,33.98
2019-02-27T20:55:54.210Z,33.92
2019-02-27T20:58:22.695Z,34.92
2019-02-27T21:00:51.233Z,34.18
2019-02-27T21:03:19.734Z,37.42
2019-02-27T21:05:48.631Z,33.05
2019-02-27T21:08:17.298Z,32.93
2019-02-27T21:10:45.778Z,34.18
2019-02-27T21:13:15.926Z,32.10
2019-02-27T21:15:44.546Z,33.30
2019-02-27T21:18:13.022Z,31.15
2019-02-27T21:20:42.252Z,33.78
2019-02-27T21:23:11.969Z,30.05
2019-02-27T21:25:40.461Z,32.00
2019-02-27T21:28:09.009Z,29.30
2019-02-27T21:30:37.582Z,33.35
2019-02-27T21:33:08.216Z,33.75
2019-02-27T21:35:36.252Z,31.95
2019-02-27T21:38:04.812Z,32.50
2019-02-27T21:40:35.897Z,30.92
2019-02-27T21:43:03.494Z,31.10
2019-02-27T21:45:32.055Z,32.30
2019-02-27T21:48:00.565Z,30.00
2019-02-27T21:50:30.759Z,32.98
2019-02-27T21:53:00.809Z,32.33
2019-02-27T21:55:29.271Z,31.17
2019-02-27T21:57:58.261Z,33.42
2019-02-27T22:00:29.573Z,31.50
2019-02-27T22:03:04.012Z,32.90
2019-02-27T22:05:32.205Z,31.68
2019-02-27T22:08:00.832Z,32.65
2019-02-27T22:10:29.446Z,35.63
2019-02-27T22:12:58.012Z,39.53
2019-02-27T22:15:30.893Z,35.55
2019-02-27T22:17:59.512Z,32.78
2019-02-27T22:20:28.062Z,32.25
2019-02-27T22:22:56.720Z,34.30
2019-02-27T22:25:30.127Z,32.53
2019-02-27T22:27:55.688Z,32.00
2019-02-27T22:30:24.342Z,34.73
2019-02-27T22:32:52.883Z,31.77
2019-02-27T22:35:21.640Z,32.60
2019-02-27T22:37:52.368Z,35.23
2019-02-27T22:40:21.890Z,37.48
2019-02-27T22:42:50.437Z,35.73
2019-02-27T22:45:19.937Z,32.70
2019-02-27T22:47:49.466Z,33.20
2019-02-27T22:50:21.639Z,34.60
2019-02-27T22:52:54.147Z,33.38
2019-02-27T22:55:20.686Z,33.90
2019-02-27T22:57:49.160Z,32.88
2019-02-27T23:00:45.809Z,32.10
2019-02-27T23:03:14.484Z,33.23
2019-02-27T23:05:43.038Z,39.33
2019-02-27T23:08:11.531Z,34.55
2019-02-27T23:10:39.971Z,36.10
2019-02-27T23:13:12.427Z,35.52
2019-02-27T23:15:40.113Z,34.05
2019-02-27T23:18:08.743Z,36.95
2019-02-27T23:20:37.379Z,34.73
2019-02-27T23:23:05.978Z,41.33
2019-02-27T23:25:34.584Z,39.18
2019-02-27T23:28:03.128Z,37.38
2019-02-27T23:30:31.656Z,35.45
2019-02-27T23:33:02.278Z,39.30
2019-02-27T23:35:33.886Z,37.88
2019-02-27T23:38:03.326Z,41.02
2019-02-27T23:40:32.702Z,42.27
2019-02-27T23:43:03.360Z,40.28
2019-02-27T23:45:31.652Z,37.08
2019-02-27T23:48:02.218Z,42.05
2019-02-27T23:50:30.612Z,34.85
2019-02-27T23:52:59.092Z,37.00
2019-02-27T23:55:27.582Z,35.08
2019-02-27T23:57:57.936Z,37.70
